Grandview Heights, Ohio
Current Conditions -  °F | °C
As of 3:07 PM on Monday 24 Nov 2014 (Local Time) from KOSU Reporting Station
Light Rain Light Rain  
Wind Chill: 40°   Ceiling: 2800
Heat Index: 48°   Visibility: 10mi
Dew Point: 38°   Wind: 25mph
Humidity: 68%   Direction: 240°WSW
Pressure: 29.58"   Gusts: 38mph
Location:  39.987°N, 83.0425°W
Report Text: KOSU 242007Z 24022G33KT 10SM -RA BKN028 OVC033 09/03 A2958 RMK AO2 PK WND 23034/1954 P0000 T00890033
Loading
Personal Weather Stations






























Interactive Weather Map New forecast layout! Learn more

10-Day Weather Forecast

Advertisements
Track Severe Weather on mobile